Anchorage, AK

4:48 AM AKDT on October 02, 2014 (GMT -0800)
ENSTAR 3000 Spenard Rd | Change Station
CLOSE
Current Station
Personal Weather Station
Location: Anchorage, AK
Elevation: 152 ft
Nearby Weather Stations

Elev 152 ft 61.19 °N, 149.91 °W | Updated 3 days ago

Partly Cloudy
Partly Cloudy
31 °F
Feels Like 26 °F
N
6
Wind Variable Wind from East
Gusts 6 mph

Today
High -- | Low -- °F
--% Chance of Precip.
Yesterday
High -- | Low -- °F
Precip. -- in
8:09 AM 7:27 PM
First Quarter, 58% visible
Pressure 30.11 in
Visibility 10.0 miles
Clouds Few 10000 ft
Mostly Cloudy 22000 ft
Windchill 26 °F
Dew Point 22 °F
Humidity 71%
Rainfall 0.00 in
Snow Depth 3 in , 0 in , 1 in
UV 0.0 out of 12
Pollen Not available.
Air Quality Not available.
Flu Activity Not available.
METAR PAMR 021153Z 00000KT 10SM FEW100 BKN220 00/M05 A3010 RMK AO2 SLP196 T00001050 10028 21011 58016

More Conditions Fewer Conditions

Pressure 30.11 in
Visibility 10.0 miles
Clouds Few 10000 ft
Mostly Cloudy 22000 ft
Windchill 26 °F
Dew Point 22 °F
Humidity 71%
Rainfall 0.00 in
Snow Depth 3 in , 0 in , 1 in
UV 0.0 out of 12
Pollen Not available.
Air Quality Not available.
Flu Activity Not available.
METAR PAMR 021153Z 00000KT 10SM FEW100 BKN220 00/M05 A3010 RMK AO2 SLP196 T00001050 10028 21011 58016

More Conditions Fewer Conditions

10-Day Weather Forecast

Almanac

Astronomy

Oct. 02, 2014 Rise Set
Actual Time 8:09 AM AKDT 7:27 PM AKDT
Civil Twilight 7:26 AM AKDT 8:10 PM AKDT
Nautical Twilight 6:35 AM AKDT 9:00 PM AKDT
Astronomical Twilight 5:42 AM AKDT 9:53 PM AKDT
Moon 5:06 PM AKDT 12:03 AM AKDT
Length of Visible Light 12h 44m
Length of Day
11h 18m
Tomorrow will be 5m 40s shorter.
First Quarter, 58% of the Moon is Illuminated
Today
First Quarter
Oct 8
Full
Oct 15
Last Quarter
Oct 23
New
Oct 30
First Quarter

Today's Extremes

State Highs State Lows

Community

WunderPhotos

Upload Photos

1,758,226 photos uploaded!

WunderBlogs® & News

By Dr. Jeff Masters
Director of Meteorology, Weather Underground
By Kari Strenfel
Meteorologist, Weather Underground
By Christopher C. Burt
Weather Historian, Weather Underground
October 2, 2014
October 2, 2014
October 2, 2014

Nearby

Snow Depth

Station Depth Elevation
Gobblers Knob 3 in 2030 ft
Summit Creek 0 in 1400 ft
Munson Ridge 5 in 3100 ft
MF Bradley River 1 in 2300 ft
Susitna Valley High 2 in 375 ft

Earthquake Activity

City Distance Mag. Time & Date
No recent earthquake activity has been reported nearby.
Minimum magnitude displayed is 2.5.

Coastal Water Temperatures

Place Temperature
No Stations Reporting

Nearby Weather Stations